Time;durP1;ratioP1;P1;durP2;ratioP2;P2;SDS_P1;SDS_P2;PMS_P1;PMS_P2;Temp;Humidity;BMP_temperature;BMP_pressure;BME280_temperature;BME280_humidity;BME280_pressure;Samples;Min_cycle;Max_cycle;Signal;HPM_P1;HPM_P2
2022/08/30 00:03:00;;;;;;;3.63;2.77;;;25.60;48.90;;;;;;5095676;28;20384;-85
2022/08/30 00:05:44;;;;;;;4.00;2.53;;;25.60;49.00;;;;;;5096161;28;20392;-85
2022/08/30 00:08:11;;;;;;;3.40;2.77;;;25.60;48.90;;;;;;5077906;28;20403;-85
2022/08/30 00:10:44;;;;;;;3.80;2.67;;;25.60;49.00;;;;;;5077997;28;20401;-85
2022/08/30 00:13:26;;;;;;;4.43;3.00;;;25.60;49.00;;;;;;5095562;28;20408;-85
2022/08/30 00:16:08;;;;;;;4.30;3.00;;;25.60;48.90;;;;;;5061776;28;20405;-85
2022/08/30 00:18:37;;;;;;;2.83;2.50;;;25.60;48.90;;;;;;5077405;28;20452;-85
2022/08/30 00:21:05;;;;;;;3.73;2.80;;;25.60;48.90;;;;;;5077496;28;20420;-85
2022/08/30 00:23:34;;;;;;;3.57;2.87;;;25.60;48.90;;;;;;5076698;28;20432;-86
2022/08/30 00:26:02;;;;;;;3.57;2.50;;;25.60;48.90;;;;;;5074282;28;20429;-86
2022/08/30 00:28:44;;;;;;;5.93;2.83;;;25.60;48.90;;;;;;5075249;28;20423;-85
2022/08/30 00:31:11;;;;;;;4.37;3.13;;;25.60;48.90;;;;;;5092362;28;20417;-85
2022/08/30 00:33:41;;;;;;;2.80;2.50;;;25.50;48.90;;;;;;5092450;28;20518;-86
2022/08/30 00:36:09;;;;;;;2.50;2.13;;;25.50;48.90;;;;;;5073979;28;20413;-86
2022/08/30 00:38:52;;;;;;;6.13;2.83;;;25.50;48.90;;;;;;5074466;28;20458;-86
2022/08/30 00:41:31;;;;;;;3.20;2.50;;;25.50;49.40;;;;;;5073452;28;20446;-86
2022/08/30 00:44:00;;;;;;;3.67;3.20;;;25.50;48.90;;;;;;5090379;28;20419;-86
2022/08/30 00:46:35;;;;;;;3.10;2.77;;;25.50;49.00;;;;;;5075001;28;20408;-86
2022/08/30 00:49:11;;;;;;;3.67;2.80;;;25.50;48.90;;;;;;5077395;28;20482;-85
2022/08/30 00:51:48;;;;;;;3.60;2.77;;;25.50;48.90;;;;;;5094581;28;20408;-86
2022/08/30 00:54:17;;;;;;;3.60;2.97;;;25.50;48.90;;;;;;5094180;28;20466;-85
2022/08/30 00:56:56;;;;;;;3.27;2.13;;;25.50;49.00;;;;;;5094484;28;20408;-86
2022/08/30 00:59:29;;;;;;;3.13;2.53;;;25.50;49.00;;;;;;5110821;28;20458;-86
2022/08/30 01:02:09;;;;;;;2.50;2.30;;;25.50;49.00;;;;;;5075027;28;20463;-86
2022/08/30 01:04:41;;;;;;;3.00;1.97;;;25.50;49.00;;;;;;5098280;28;20466;-86
2022/08/30 01:07:11;;;;;;;4.20;3.50;;;25.50;49.00;;;;;;5090279;28;20412;-86
2022/08/30 01:09:41;;;;;;;4.03;3.07;;;25.50;49.00;;;;;;5073454;28;20413;-86
2022/08/30 01:12:10;;;;;;;3.53;2.67;;;25.50;48.90;;;;;;5085424;28;20422;-86
2022/08/30 01:14:37;;;;;;;3.80;2.77;;;25.50;48.90;;;;;;5093828;28;20557;-86
2022/08/30 01:17:05;;;;;;;3.30;2.63;;;25.40;48.90;;;;;;5089471;28;20408;-84
2022/08/30 01:19:48;;;;;;;4.17;2.57;;;25.40;48.80;;;;;;5089009;28;20451;-84
2022/08/30 01:22:41;;;;;;;3.20;2.73;;;25.40;48.40;;;;;;5089230;28;20722;-84
2022/08/30 01:25:20;;;;;;;4.20;2.93;;;25.40;48.80;;;;;;5089245;28;20477;-84
2022/08/30 01:28:14;;;;;;;3.53;2.53;;;25.40;48.80;;;;;;5089320;28;20408;-86
2022/08/30 01:30:44;;;;;;;4.93;2.50;;;25.40;48.80;;;;;;5093293;28;20495;-86
2022/08/30 01:33:21;;;;;;;3.10;2.80;;;25.40;48.80;;;;;;5093675;28;20431;-86
2022/08/30 01:36:00;;;;;;;4.70;3.20;;;25.40;48.80;;;;;;5093366;28;20473;-86
2022/08/30 01:38:39;;;;;;;3.83;2.50;;;25.40;48.80;;;;;;5095126;28;20448;-86
2022/08/30 01:41:17;;;;;;;4.37;2.97;;;25.40;48.80;;;;;;5111821;28;20388;-86
2022/08/30 01:43:44;;;;;;;4.77;3.20;;;25.30;48.80;;;;;;5094860;28;20407;-86
2022/08/30 01:46:20;;;;;;;6.07;3.63;;;25.30;48.80;;;;;;5094452;28;20408;-86
2022/08/30 01:48:47;;;;;;;2.60;2.40;;;25.30;48.70;;;;;;5094306;28;20404;-86
2022/08/30 01:51:17;;;;;;;3.40;2.47;;;25.30;48.80;;;;;;5094571;28;20425;-86
2022/08/30 01:53:45;;;;;;;4.30;2.97;;;25.30;48.70;;;;;;5089578;28;20400;-84
2022/08/30 01:56:17;;;;;;;3.53;2.53;;;25.30;48.70;;;;;;5087712;28;20502;-83
2022/08/30 01:58:43;;;;;;;2.93;2.43;;;25.30;48.70;;;;;;5087568;28;20462;-84
2022/08/30 02:01:32;;;;;;;4.27;2.63;;;25.30;48.70;;;;;;5087606;28;20423;-84
2022/08/30 02:04:03;;;;;;;3.00;2.70;;;25.30;48.70;;;;;;5087973;28;20454;-84
2022/08/30 02:06:31;;;;;;;2.47;2.20;;;25.30;48.70;;;;;;5087417;28;20412;-84
2022/08/30 02:08:58;;;;;;;3.10;2.80;;;25.30;48.70;;;;;;5087452;28;20681;-84
2022/08/30 02:11:25;;;;;;;3.20;2.73;;;25.30;48.70;;;;;;5087539;28;20408;-84
2022/08/30 02:13:51;;;;;;;2.67;2.20;;;25.30;48.70;;;;;;5087599;28;20412;-84
2022/08/30 02:16:21;;;;;;;3.47;2.63;;;25.30;48.60;;;;;;5087584;28;20454;-84
2022/08/30 02:18:48;;;;;;;3.83;2.93;;;25.30;48.60;;;;;;5087534;28;20455;-84
2022/08/30 02:21:17;;;;;;;4.27;2.60;;;25.30;48.60;;;;;;5087323;28;20411;-84
2022/08/30 02:23:52;;;;;;;4.00;2.80;;;25.30;48.70;;;;;;5086999;28;20448;-84
2022/08/30 02:26:23;;;;;;;3.47;2.60;;;25.30;48.70;;;;;;5091223;28;20426;-86
2022/08/30 02:28:52;;;;;;;5.23;2.50;;;25.30;48.70;;;;;;5110296;28;20468;-86
2022/08/30 02:31:45;;;;;;;2.60;2.20;;;25.30;48.60;;;;;;5092512;28;20504;-86
2022/08/30 02:34:16;;;;;;;3.90;2.40;;;25.30;48.60;;;;;;5112722;28;20426;-83
2022/08/30 02:36:51;;;;;;;4.47;3.00;;;25.30;48.70;;;;;;5095166;28;20411;-83
2022/08/30 02:39:19;;;;;;;3.90;2.60;;;25.30;48.60;;;;;;5094764;28;20465;-83
2022/08/30 02:41:55;;;;;;;4.13;2.77;;;25.30;48.60;;;;;;5097036;28;20418;-83
2022/08/30 02:44:25;;;;;;;4.80;2.80;;;25.30;48.60;;;;;;5094169;28;20476;-83
2022/08/30 02:46:54;;;;;;;3.57;2.50;;;25.30;48.60;;;;;;5095469;28;20404;-83
2022/08/30 02:49:35;;;;;;;3.00;2.53;;;25.30;48.60;;;;;;5103884;28;20408;-83
2022/08/30 02:52:07;;;;;;;3.93;2.20;;;25.30;48.50;;;;;;5095069;28;20411;-84
2022/08/30 02:54:48;;;;;;;5.40;2.73;;;25.30;48.50;;;;;;5095287;28;20494;-83
2022/08/30 02:57:19;;;;;;;4.30;2.87;;;25.30;48.50;;;;;;5095497;28;20424;-83
2022/08/30 02:59:49;;;;;;;2.83;2.50;;;25.30;48.50;;;;;;5074779;28;20536;-83
2022/08/30 03:02:26;;;;;;;3.67;3.17;;;25.20;48.40;;;;;;5095003;28;20415;-83
2022/08/30 03:05:05;;;;;;;4.13;2.87;;;25.20;48.40;;;;;;5080199;28;20411;-83
2022/08/30 03:07:38;;;;;;;3.77;2.60;;;25.20;48.40;;;;;;5115179;28;20431;-83
2022/08/30 03:10:12;;;;;;;4.23;2.70;;;25.20;48.50;;;;;;5098945;28;20471;-83
2022/08/30 03:12:53;;;;;;;3.57;2.40;;;25.20;48.50;;;;;;5098736;28;20408;-83
2022/08/30 03:15:27;;;;;;;3.07;2.67;;;25.20;48.50;;;;;;5116170;28;20399;-83
2022/08/30 03:18:42;;;;;;;3.40;2.87;;;25.20;48.50;;;;;;5114607;28;20411;-82
2022/08/30 03:21:13;;;;;;;3.90;2.90;;;25.20;48.50;;;;;;5097811;28;20416;-83
2022/08/30 03:23:50;;;;;;;3.93;2.60;;;25.20;48.60;;;;;;5097864;28;20438;-83
2022/08/30 03:26:23;;;;;;;5.20;3.43;;;25.20;48.50;;;;;;5119167;28;20415;-83
2022/08/30 03:29:03;;;;;;;2.80;2.27;;;25.20;48.50;;;;;;5114042;28;20411;-83
2022/08/30 03:31:41;;;;;;;;;;;;;;;;;;;;;
2022/08/30 03:34:09;;;;;;;2.67;2.27;;;25.20;48.40;;;;;;5099500;28;20812;-83
2022/08/30 03:36:39;;;;;;;3.67;2.40;;;25.20;48.50;;;;;;5097460;28;20400;-83
2022/08/30 03:39:11;;;;;;;4.00;2.60;;;25.20;48.40;;;;;;5097792;28;20454;-83
2022/08/30 03:41:51;;;;;;;4.17;2.53;;;25.20;48.40;;;;;;5115526;28;20384;-83
2022/08/30 03:44:33;;;;;;;3.90;2.90;;;25.20;48.40;;;;;;5082273;28;20411;-83
2022/08/30 03:47:04;;;;;;;3.00;2.70;;;25.20;48.40;;;;;;5097816;28;20408;-83
2022/08/30 03:49:40;;;;;;;2.80;2.40;;;25.20;48.40;;;;;;5080733;28;20419;-83
2022/08/30 03:52:13;;;;;;;3.30;2.00;;;25.20;48.30;;;;;;5096210;28;20423;-83
2022/08/30 03:54:47;;;;;;;3.70;2.97;;;25.20;48.30;;;;;;5097037;28;20404;-83
2022/08/30 03:57:24;;;;;;;4.30;2.97;;;25.20;48.30;;;;;;5097000;28;20465;-83
2022/08/30 03:59:57;;;;;;;3.30;3.00;;;25.20;48.30;;;;;;5097213;28;20450;-83
2022/08/30 04:02:27;;;;;;;3.33;2.40;;;25.10;48.30;;;;;;5095649;28;20435;-83
2022/08/30 04:04:58;;;;;;;3.77;2.70;;;25.10;48.30;;;;;;5097589;28;20423;-83
2022/08/30 04:07:28;;;;;;;3.23;2.90;;;25.10;48.30;;;;;;5097051;28;20404;-83
2022/08/30 04:09:55;;;;;;;2.80;2.53;;;25.10;48.20;;;;;;5097317;28;20443;-83
2022/08/30 04:12:23;;;;;;;3.10;2.47;;;25.10;48.20;;;;;;5094954;28;20422;-83
2022/08/30 04:14:54;;;;;;;3.10;2.30;;;25.10;48.20;;;;;;5114733;28;20415;-84
2022/08/30 04:17:27;;;;;;;3.00;2.63;;;25.10;48.20;;;;;;5096203;28;20414;-83
2022/08/30 04:22:46;;;;;;;3.27;2.50;;;25.10;48.20;;;;;;5113384;28;20416;-83
2022/08/30 04:25:12;;;;;;;3.10;2.33;;;25.10;48.20;;;;;;5092643;28;20911;-83
2022/08/30 04:27:38;;;;;;;3.73;2.90;;;25.10;48.20;;;;;;5089116;28;20439;-83
2022/08/30 04:30:07;;;;;;;3.30;2.83;;;25.10;48.20;;;;;;5088739;28;20424;-83
2022/08/30 04:32:41;;;;;;;6.87;2.77;;;25.10;48.20;;;;;;5088808;28;20415;-83
2022/08/30 04:35:08;;;;;;;2.60;2.23;;;25.10;48.20;;;;;;5084396;28;20421;-83
2022/08/30 04:37:37;;;;;;;3.67;2.90;;;25.10;48.20;;;;;;5069024;28;20412;-83
2022/08/30 04:40:07;;;;;;;3.40;2.53;;;25.10;48.20;;;;;;5067986;28;20459;-84
2022/08/30 04:42:34;;;;;;;5.83;2.97;;;25.10;48.20;;;;;;5068403;28;20821;-83
2022/08/30 04:45:17;;;;;;;4.03;2.90;;;25.10;48.20;;;;;;5069107;28;20417;-83
2022/08/30 04:47:44;;;;;;;4.07;2.80;;;25.10;48.10;;;;;;5068006;28;20408;-83
2022/08/30 04:50:17;;;;;;;5.00;3.10;;;25.10;48.10;;;;;;5068206;28;20493;-83
2022/08/30 04:52:43;;;;;;;4.67;2.87;;;25.10;48.10;;;;;;5068142;28;20411;-83
2022/08/30 04:55:35;;;;;;;3.17;2.87;;;25.10;48.10;;;;;;5069008;28;20531;-83
2022/08/30 04:58:07;;;;;;;3.60;2.70;;;25.10;48.00;;;;;;5094680;28;20401;-83
2022/08/30 05:00:40;;;;;;;3.60;2.87;;;25.10;48.10;;;;;;5076670;28;20416;-82
2022/08/30 05:03:11;;;;;;;4.03;2.87;;;25.10;48.10;;;;;;5061484;28;20428;-83
2022/08/30 05:05:47;;;;;;;4.20;2.87;;;25.10;48.10;;;;;;5092488;28;20443;-82
2022/08/30 05:08:20;;;;;;;3.80;2.53;;;25.10;48.10;;;;;;5076514;28;20435;-83
2022/08/30 05:10:52;;;;;;;3.30;2.10;;;25.10;48.10;;;;;;5094234;28;20397;-82
2022/08/30 05:13:27;;;;;;;4.00;3.07;;;25.10;48.20;;;;;;5093551;28;20412;-83
2022/08/30 05:15:59;;;;;;;3.77;2.67;;;25.10;48.10;;;;;;5076394;28;20421;-82
2022/08/30 05:18:55;;;;;;;3.70;2.97;;;25.10;48.10;;;;;;5093366;28;20480;-83
2022/08/30 05:21:29;;;;;;;5.10;3.40;;;25.10;48.10;;;;;;5075823;28;20405;-82
2022/08/30 05:24:03;;;;;;;5.77;2.63;;;25.10;48.20;;;;;;5075737;28;20412;-82
2022/08/30 05:26:44;;;;;;;5.43;3.50;;;25.10;48.10;;;;;;5092345;28;20388;-82
2022/08/30 05:29:24;;;;;;;4.97;2.90;;;25.10;48.10;;;;;;5092938;28;20425;-83
2022/08/30 05:31:54;;;;;;;10.83;3.07;;;25.10;48.20;;;;;;5090845;28;20444;-83
2022/08/30 05:34:34;;;;;;;4.10;2.90;;;25.10;48.10;;;;;;5072535;28;20441;-83
2022/08/30 05:37:22;;;;;;;3.67;2.80;;;25.10;48.10;;;;;;5076061;28;20408;-83
2022/08/30 05:40:16;;;;;;;2.83;2.50;;;25.10;48.10;;;;;;5075817;28;20539;-83
2022/08/30 05:42:48;;;;;;;3.40;2.77;;;25.10;48.10;;;;;;5075383;28;20416;-83
2022/08/30 05:45:19;;;;;;;3.03;2.43;;;25.10;48.00;;;;;;5092451;28;20408;-83
2022/08/30 05:47:52;;;;;;;3.47;2.73;;;25.10;48.10;;;;;;5075502;28;20409;-83
2022/08/30 05:50:26;;;;;;;4.60;2.60;;;25.10;48.10;;;;;;5075187;28;20415;-83
2022/08/30 05:53:05;;;;;;;2.63;2.43;;;25.10;48.00;;;;;;5091613;28;20854;-82
2022/08/30 05:55:34;;;;;;;6.37;3.23;;;25.10;48.10;;;;;;5075232;28;20507;-83
2022/08/30 05:58:09;;;;;;;3.67;2.53;;;25.10;48.00;;;;;;5089872;28;20393;-82
2022/08/30 06:00:53;;;;;;;4.73;3.93;;;25.10;48.00;;;;;;5074987;28;20410;-83
2022/08/30 06:03:45;;;;;;;4.67;3.33;;;25.10;48.00;;;;;;5093003;28;20695;-83
2022/08/30 06:09:39;;;;;;;3.93;2.63;;;25.10;48.10;;;;;;5067842;28;20415;-83
2022/08/30 06:12:15;;;;;;;2.60;2.33;;;25.00;48.10;;;;;;5074082;28;20413;-81
2022/08/30 06:14:55;;;;;;;2.50;2.30;;;25.00;48.10;;;;;;5073677;28;20408;-83
2022/08/30 06:17:22;;;;;;;2.93;2.57;;;25.00;48.20;;;;;;5073792;28;20408;-83
2022/08/30 06:20:06;;;;;;;3.47;2.77;;;25.00;48.10;;;;;;5091885;28;20459;-83
2022/08/30 06:22:37;;;;;;;3.77;2.90;;;25.10;48.20;;;;;;5073084;28;20409;-83
2022/08/30 06:25:39;;;;;;;3.37;2.50;;;25.00;48.10;;;;;;5090406;28;20531;-83
2022/08/30 06:28:16;;;;;;;5.00;3.57;;;25.10;48.20;;;;;;5072986;28;20416;-83
2022/08/30 06:30:44;;;;;;;4.63;2.70;;;25.00;48.10;;;;;;5090653;28;20412;-83
2022/08/30 06:33:37;;;;;;;3.50;2.60;;;25.00;48.10;;;;;;5091023;28;20815;-83
2022/08/30 06:36:24;;;;;;;3.00;2.67;;;25.00;48.20;;;;;;5073979;28;20435;-83
2022/08/30 06:38:53;;;;;;;4.30;3.50;;;25.00;48.10;;;;;;5074233;28;20491;-80
2022/08/30 06:41:41;;;;;;;4.30;3.30;;;25.00;48.10;;;;;;5094193;28;20420;-81
2022/08/30 06:44:16;;;;;;;4.20;2.60;;;25.00;48.20;;;;;;5092128;28;20476;-82
2022/08/30 06:46:51;;;;;;;6.43;3.20;;;25.00;48.20;;;;;;5077138;28;20413;-83
2022/08/30 06:49:20;;;;;;;3.73;2.63;;;25.10;48.30;;;;;;5094520;28;20399;-80
2022/08/30 06:52:21;;;;;;;3.97;2.70;;;25.00;48.20;;;;;;5076935;28;20431;-83
2022/08/30 06:55:26;;;;;;;3.60;2.67;;;25.00;48.20;;;;;;5035437;28;20432;-85
2022/08/30 06:57:57;;;;;;;3.80;2.73;;;25.00;48.20;;;;;;5035610;28;20419;-82
2022/08/30 07:00:34;;;;;;;4.67;2.90;;;25.00;48.20;;;;;;5054297;28;20505;-81
2022/08/30 07:03:08;;;;;;;4.00;2.53;;;25.00;48.30;;;;;;5036553;28;20417;-81
2022/08/30 07:05:44;;;;;;;3.60;2.70;;;25.00;48.30;;;;;;5037925;28;20406;-81
2022/08/30 07:08:15;;;;;;;3.50;2.97;;;25.00;48.30;;;;;;5037865;28;20402;-81
2022/08/30 07:10:42;;;;;;;5.30;2.70;;;25.00;48.30;;;;;;5037691;28;20721;-81
2022/08/30 07:13:12;;;;;;;3.93;3.00;;;25.00;48.40;;;;;;5054302;28;20399;-82
2022/08/30 07:16:11;;;;;;;;;;;;;;;;;;;;;
2022/08/30 07:18:50;;;;;;;3.10;2.73;;;25.00;48.50;;;;;;5028054;28;20493;-80
2022/08/30 07:21:29;;;;;;;5.50;3.23;;;25.00;48.50;;;;;;5038992;28;20477;-81
2022/08/30 07:24:02;;;;;;;3.30;2.90;;;25.00;48.50;;;;;;5038421;28;20425;-82
2022/08/30 07:26:47;;;;;;;4.30;3.10;;;25.00;48.50;;;;;;5037392;28;20485;-82
2022/08/30 07:29:23;;;;;;;3.93;3.00;;;25.10;48.60;;;;;;5039051;28;20499;-81
2022/08/30 07:32:10;;;;;;;6.90;3.43;;;25.00;48.50;;;;;;5085680;28;20419;-81
2022/08/30 07:35:01;;;;;;;4.70;3.43;;;25.00;48.50;;;;;;5078314;28;20420;-82
2022/08/30 07:37:46;;;;;;;5.40;3.47;;;25.10;48.70;;;;;;5079640;28;20447;-82
2022/08/30 07:40:38;;;;;;;3.87;2.60;;;25.10;48.60;;;;;;5095750;28;20428;-82
2022/08/30 07:43:12;;;;;;;3.33;2.50;;;25.10;48.70;;;;;;5067923;28;20776;-81
2022/08/30 07:45:41;;;;;;;4.67;2.80;;;25.10;48.70;;;;;;5078543;28;20438;-81
2022/08/30 07:54:46;;;;;;;4.07;3.40;;;25.10;48.70;;;;;;5074889;28;20396;-81
2022/08/30 07:57:27;;;;;;;5.53;3.37;;;25.10;48.70;;;;;;5074393;28;20436;-81
2022/08/30 08:03:20;;;;;;;4.93;3.27;;;25.10;48.70;;;;;;5040981;28;20437;-81
2022/08/30 08:06:02;;;;;;;3.73;2.63;;;25.10;48.70;;;;;;5057462;28;20469;-80
2022/08/30 08:08:38;;;;;;;4.97;2.70;;;25.10;49.30;;;;;;5057310;28;20488;-81
2022/08/30 08:11:11;;;;;;;5.37;2.93;;;25.10;48.80;;;;;;5038882;28;20418;-81
2022/08/30 08:13:59;;;;;;;3.57;2.97;;;25.10;48.80;;;;;;5074161;28;20408;-80
2022/08/30 08:16:35;;;;;;;3.60;2.50;;;25.10;48.80;;;;;;5074080;28;20440;-80
2022/08/30 08:19:07;;;;;;;6.83;3.20;;;25.10;48.80;;;;;;5057975;28;20453;-80
2022/08/30 08:21:37;;;;;;;5.20;3.20;;;25.10;48.80;;;;;;5094194;28;20443;-79
2022/08/30 08:24:52;;;;;;;5.47;2.63;;;25.10;48.80;;;;;;5096514;28;20400;-79
2022/08/30 08:30:52;;;;;;;4.03;2.87;;;25.10;48.80;;;;;;5108205;28;20391;-82
2022/08/30 08:33:19;;;;;;;5.07;3.20;;;25.10;48.90;;;;;;5089725;28;20440;-81
2022/08/30 08:35:46;;;;;;;5.33;3.27;;;25.10;48.90;;;;;;5090270;28;20864;-82
2022/08/30 08:38:18;;;;;;;3.67;2.50;;;25.10;48.90;;;;;;5089994;28;20416;-82
2022/08/30 08:40:57;;;;;;;3.70;2.90;;;25.10;48.90;;;;;;5090345;28;20704;-81
2022/08/30 08:43:37;;;;;;;4.00;2.90;;;25.10;48.90;;;;;;5091165;28;20450;-81
2022/08/30 08:46:32;;;;;;;3.57;2.83;;;25.10;48.90;;;;;;5090992;28;20418;-81
2022/08/30 08:50:10;;;;;;;4.07;3.30;;;25.10;49.00;;;;;;5091023;28;20422;-81
2022/08/30 08:56:18;;;;;;;3.00;2.70;;;25.10;49.00;;;;;;5032671;28;20417;-81
2022/08/30 08:58:50;;;;;;;3.73;3.20;;;25.10;49.00;;;;;;5030997;28;20569;-82
2022/08/30 09:01:32;;;;;;;3.43;2.73;;;25.10;49.10;;;;;;5032338;28;20521;-81
2022/08/30 09:04:28;;;;;;;2.87;2.57;;;25.20;49.10;;;;;;5032321;28;20419;-80
2022/08/30 09:07:21;;;;;;;3.97;2.60;;;25.20;49.10;;;;;;5026720;28;20427;-81
2022/08/30 09:09:54;;;;;;;4.50;2.90;;;25.20;49.10;;;;;;5009665;28;20442;-81
2022/08/30 09:12:22;;;;;;;4.53;3.00;;;25.20;49.10;;;;;;5014834;28;20459;-81
2022/08/30 09:15:21;;;;;;;5.20;3.27;;;25.20;49.10;;;;;;5030661;28;20520;-81
2022/08/30 09:20:54;;;;;;;3.23;2.90;;;25.20;49.20;;;;;;5044835;28;20501;-81
2022/08/30 09:23:28;;;;;;;4.57;3.13;;;25.20;49.20;;;;;;5026377;28;20446;-81
2022/08/30 09:26:50;;;;;;;4.00;2.70;;;25.20;49.10;;;;;;5043481;28;20424;-80
2022/08/30 09:29:35;;;;;;;4.80;3.13;;;25.20;49.00;;;;;;5076671;28;20423;-82
2022/08/30 09:42:44;;;;;;;3.03;2.43;;;25.20;49.20;;;;;;5106229;28;20435;-82
2022/08/30 09:49:39;;;;;;;4.80;3.00;;;25.20;49.30;;;;;;4935650;29;20431;-82
2022/08/30 09:52:38;;;;;;;5.27;2.90;;;25.20;49.30;;;;;;4930310;29;20439;-82
2022/08/30 09:55:46;;;;;;;4.53;3.40;;;25.20;49.20;;;;;;4915498;29;20428;-82
2022/08/30 09:58:22;;;;;;;4.33;3.30;;;25.30;49.30;;;;;;4874435;29;20434;-82
2022/08/30 10:01:53;;;;;;;3.47;2.93;;;25.30;49.30;;;;;;4874422;29;20430;-81
2022/08/30 10:14:53;;;;;;;3.70;2.93;;;25.30;49.30;;;;;;4857722;29;20416;-83
2022/08/30 10:17:55;;;;;;;3.07;2.80;;;25.30;49.30;;;;;;4856052;29;20507;-82
2022/08/30 10:27:24;;;;;;;4.93;3.17;;;25.30;49.40;;;;;;4970594;28;20380;-82
2022/08/30 10:37:20;;;;;;;4.50;3.70;;;25.40;49.30;;;;;;4925491;29;20557;-81
2022/08/30 10:41:11;;;;;;;4.53;3.43;;;25.40;49.30;;;;;;4931773;29;20504;-81
2022/08/30 10:42:55;;;;;;;3.40;2.73;;;25.40;49.40;;;;;;4930562;29;20503;-81
2022/08/30 10:45:35;;;;;;;4.97;2.83;;;25.30;49.30;;;;;;4931070;29;20468;-81
2022/08/30 10:48:51;;;;;;;3.97;3.33;;;25.30;49.30;;;;;;4934568;29;20516;-81
2022/08/30 10:51:43;;;;;;;3.73;3.10;;;25.40;49.30;;;;;;4948969;29;20418;-81
2022/08/30 10:57:34;;;;;;;4.83;3.00;;;25.40;49.00;;;;;;4911868;29;20448;-81
2022/08/30 11:00:05;;;;;;;3.50;3.20;;;25.40;49.00;;;;;;4921335;29;20905;-81
2022/08/30 11:02:55;;;;;;;3.60;3.10;;;25.40;48.90;;;;;;4933031;29;20423;-81
2022/08/30 11:05:27;;;;;;;9.83;3.50;;;25.40;48.90;;;;;;4933502;29;20888;-81
2022/08/30 11:08:18;;;;;;;3.93;3.53;;;25.50;48.80;;;;;;4948847;29;20478;-81
2022/08/30 11:11:09;;;;;;;4.53;3.50;;;25.50;48.80;;;;;;4985602;28;20428;-81
2022/08/30 11:13:51;;;;;;;6.00;3.40;;;25.50;48.80;;;;;;4990028;28;20507;-81
2022/08/30 11:16:32;;;;;;;3.07;2.60;;;25.50;48.60;;;;;;5004667;28;20798;-81
2022/08/30 11:19:23;;;;;;;4.73;3.07;;;25.50;48.70;;;;;;4991581;28;20452;-81
2022/08/30 11:21:52;;;;;;;3.30;2.90;;;25.50;48.70;;;;;;4992191;28;20416;-81
2022/08/30 11:24:29;;;;;;;3.40;3.10;;;25.50;48.70;;;;;;4991747;28;20728;-82
2022/08/30 11:27:01;;;;;;;4.00;3.60;;;25.50;48.60;;;;;;4994161;28;20885;-81
2022/08/30 11:29:44;;;;;;;3.43;3.13;;;25.50;48.50;;;;;;4995982;28;20400;-82
2022/08/30 11:32:33;;;;;;;3.07;2.77;;;25.50;48.40;;;;;;5065887;28;20415;-81
2022/08/30 11:35:01;;;;;;;7.27;3.33;;;25.50;48.30;;;;;;4992576;28;20452;-81
2022/08/30 11:37:46;;;;;;;5.43;3.17;;;25.50;48.30;;;;;;4976116;28;20490;-81
2022/08/30 11:40:27;;;;;;;6.30;3.73;;;25.50;48.10;;;;;;4975292;28;20491;-81
2022/08/30 11:43:20;;;;;;;10.80;3.53;;;25.50;48.20;;;;;;4975503;28;20443;-82
2022/08/30 11:45:53;;;;;;;4.50;3.43;;;25.50;48.20;;;;;;4991992;28;20441;-81
2022/08/30 11:48:44;;;;;;;3.70;3.00;;;25.50;48.30;;;;;;4975883;28;20451;-82
2022/08/30 11:51:44;;;;;;;5.00;3.17;;;25.50;48.10;;;;;;4972183;28;20426;-82
2022/08/30 11:54:47;;;;;;;3.50;3.20;;;25.50;47.90;;;;;;4975710;28;20532;-82
2022/08/30 11:57:47;;;;;;;4.10;3.70;;;25.50;47.90;;;;;;4975644;28;20405;-82
2022/08/30 12:00:34;;;;;;;3.93;3.23;;;25.50;47.90;;;;;;4975351;28;20511;-82
2022/08/30 12:03:13;;;;;;;4.90;3.20;;;25.50;47.80;;;;;;4974830;28;20415;-81
2022/08/30 12:06:05;;;;;;;4.40;3.27;;;25.50;47.70;;;;;;4975353;28;20403;-81
2022/08/30 12:08:50;;;;;;;4.20;3.30;;;25.50;47.60;;;;;;4898947;29;20417;-80
2022/08/30 12:11:25;;;;;;;5.37;3.40;;;25.50;47.60;;;;;;4931655;28;20413;-82
2022/08/30 12:13:58;;;;;;;3.90;3.60;;;25.50;47.70;;;;;;4991359;28;20434;-82
2022/08/30 12:19:51;;;;;;;4.00;3.70;;;25.50;47.30;;;;;;4991240;28;20476;-81
2022/08/30 12:22:22;;;;;;;3.53;3.23;;;25.50;47.50;;;;;;4974972;28;20581;-81
2022/08/30 12:24:56;;;;;;;3.40;3.10;;;25.50;47.50;;;;;;4992145;28;20410;-80
2022/08/30 12:27:29;;;;;;;4.10;3.23;;;25.50;47.40;;;;;;4975756;28;20437;-80
2022/08/30 12:30:02;;;;;;;4.90;3.33;;;25.50;47.30;;;;;;4990951;28;20425;-80
2022/08/30 12:32:35;;;;;;;3.67;3.30;;;25.60;47.20;;;;;;4982258;28;20416;-80
2022/08/30 12:35:05;;;;;;;3.30;3.00;;;25.60;47.20;;;;;;4993958;28;20475;-80
2022/08/30 12:37:38;;;;;;;3.80;3.10;;;25.60;47.20;;;;;;5010077;28;20421;-80
2022/08/30 12:40:17;;;;;;;3.77;3.00;;;25.60;47.10;;;;;;5011090;28;20480;-82
2022/08/30 12:42:59;;;;;;;3.33;3.03;;;25.60;46.80;;;;;;5010148;28;20440;-80
2022/08/30 12:45:50;;;;;;;3.33;3.03;;;25.60;46.80;;;;;;5050634;28;20405;-82
2022/08/30 12:48:19;;;;;;;5.33;3.17;;;25.50;46.70;;;;;;5089244;28;20413;-81
2022/08/30 12:50:53;;;;;;;3.60;3.13;;;25.50;46.80;;;;;;5089545;28;20419;-82
2022/08/30 12:53:37;;;;;;;3.13;2.87;;;25.60;46.90;;;;;;5072341;28;20423;-82
2022/08/30 12:56:20;;;;;;;3.27;3.07;;;25.60;47.00;;;;;;5105777;28;20439;-82
2022/08/30 12:59:00;;;;;;;3.67;3.37;;;25.60;47.00;;;;;;5072581;28;20460;-82
2022/08/30 13:01:34;;;;;;;3.63;2.87;;;25.60;47.00;;;;;;5071689;28;20435;-82
2022/08/30 13:04:02;;;;;;;3.70;3.03;;;25.60;46.80;;;;;;5072857;28;20411;-82
2022/08/30 13:06:48;;;;;;;4.57;3.10;;;25.50;46.70;;;;;;5072927;28;20413;-82
2022/08/30 13:09:30;;;;;;;3.30;3.00;;;25.60;46.70;;;;;;5074122;28;20404;-81
2022/08/30 13:11:57;;;;;;;3.43;3.13;;;25.60;46.50;;;;;;5091398;28;20393;-81
2022/08/30 13:14:29;;;;;;;4.80;2.97;;;25.60;46.50;;;;;;5074535;28;20419;-81
2022/08/30 13:21:09;;;;;;;2.90;2.60;;;25.60;46.50;;;;;;5094967;28;20455;-80
2022/08/30 13:24:00;;;;;;;3.03;2.60;;;25.60;46.60;;;;;;5073355;28;20424;-81
2022/08/30 13:26:50;;;;;;;3.03;2.57;;;25.50;46.60;;;;;;5097124;28;20482;-79
2022/08/30 13:32:40;;;;;;;3.50;2.67;;;25.60;46.70;;;;;;5057052;28;20401;-80
2022/08/30 13:35:47;;;;;;;3.47;3.00;;;25.60;46.70;;;;;;5055289;28;20403;-80
2022/08/30 13:38:36;;;;;;;4.40;3.37;;;25.60;46.60;;;;;;5055404;28;20406;-80
2022/08/30 13:41:17;;;;;;;3.60;3.07;;;25.50;46.60;;;;;;5050970;28;20411;-80
2022/08/30 13:43:55;;;;;;;3.47;3.17;;;25.60;46.70;;;;;;5076244;28;20397;-80
2022/08/30 13:50:23;;;;;;;3.50;3.20;;;25.60;46.70;;;;;;5053743;28;20398;-85
2022/08/30 13:53:02;;;;;;;4.57;3.27;;;25.60;46.80;;;;;;5033988;28;20431;-84
2022/08/30 14:09:18;;;;;;;3.87;3.07;;;25.60;46.40;;;;;;4917731;29;20393;-85
2022/08/30 14:12:08;;;;;;;6.73;3.30;;;25.50;46.30;;;;;;4916292;29;20449;-85
2022/08/30 14:14:42;;;;;;;4.63;3.40;;;25.60;46.30;;;;;;4915538;29;20445;-86
2022/08/30 14:17:29;;;;;;;;;;;;;;;;;;;;;
2022/08/30 14:20:13;;;;;;;3.70;3.37;;;25.60;46.30;;;;;;4915485;29;20495;-85
2022/08/30 14:23:57;;;;;;;3.30;3.00;;;25.60;46.20;;;;;;4914956;29;20485;-85
2022/08/30 14:26:44;;;;;;;4.80;3.27;;;25.60;46.10;;;;;;4911055;29;20423;-85
2022/08/30 14:49:45;;;;;;;4.83;2.93;;;25.60;46.40;;;;;;4992580;28;20431;-86
2022/08/30 14:52:21;;;;;;;5.70;3.10;;;25.60;46.40;;;;;;4974946;28;20464;-86
2022/08/30 15:05:02;;;;;;;5.60;3.40;;;25.60;46.30;;;;;;4938411;29;20463;-85
2022/08/30 15:07:36;;;;;;;4.93;3.57;;;25.60;46.30;;;;;;4938610;29;20472;-85
2022/08/30 15:10:19;;;;;;;;;;;;;;;;;;;;;
2022/08/30 15:19:44;;;;;;;3.10;2.80;;;25.60;46.40;;;;;;4975982;29;20546;-85
2022/08/30 15:22:22;;;;;;;4.67;3.00;;;25.60;46.30;;;;;;4960060;29;20424;-85
2022/08/30 15:31:37;;;;;;;4.00;3.10;;;25.60;46.30;;;;;;4937716;29;20421;-85
2022/08/30 15:34:36;;;;;;;3.53;3.00;;;25.60;46.30;;;;;;4921928;29;20411;-85
2022/08/30 15:43:24;;;;;;;2.90;2.67;;;25.60;46.30;;;;;;5034086;28;20390;-85
2022/08/30 15:46:55;;;;;;;3.53;3.00;;;25.60;46.30;;;;;;5001346;28;20487;-86
2022/08/30 15:50:19;;;;;;;3.10;2.67;;;25.60;46.30;;;;;;4983555;28;20433;-86
2022/08/30 15:52:49;;;;;;;2.90;2.40;;;25.60;46.20;;;;;;4928931;28;20444;-85
2022/08/30 15:55:54;;;;;;;3.63;3.10;;;25.60;46.30;;;;;;4975538;29;20426;-86
2022/08/30 15:58:34;;;;;;;3.07;2.77;;;25.60;46.10;;;;;;4994405;28;20418;-85
2022/08/30 16:01:06;;;;;;;2.80;2.60;;;25.60;46.00;;;;;;4999119;28;20444;-85
2022/08/30 16:03:43;;;;;;;3.40;2.80;;;25.60;46.00;;;;;;4999977;28;20484;-85
2022/08/30 16:06:48;;;;;;;3.27;2.97;;;25.60;45.90;;;;;;4998077;28;20463;-85
2022/08/30 16:19:33;;;;;;;5.20;3.40;;;25.60;45.70;;;;;;4975046;28;20492;-85
2022/08/30 16:26:17;;;;;;;;;;;;;;;;;;;;;
2022/08/30 16:28:55;;;;;;;3.60;3.07;;;25.60;45.70;;;;;;5031026;28;20832;-86
2022/08/30 16:31:54;;;;;;;4.43;3.20;;;25.60;45.80;;;;;;5037088;28;20410;-86
2022/08/30 16:34:49;;;;;;;4.00;3.67;;;25.60;45.70;;;;;;5036486;28;20422;-86
2022/08/30 16:51:35;;;;;;;3.77;3.10;;;25.60;45.70;;;;;;5052868;28;20375;-85